Time;durP1;ratioP1;P1;durP2;ratioP2;P2;SDS_P1;SDS_P2;PMS_P1;PMS_P2;Temp;Humidity;BMP_temperature;BMP_pressure;BME280_temperature;BME280_humidity;BME280_pressure;Samples;Min_cycle;Max_cycle;Signal;HPM_P1;HPM_P2
2023/07/12 00:01:18;;;;;;;1.37;0.80;;;21.90;1.00;;;;;;5033414;28;20183;-90
2023/07/12 00:03:44;;;;;;;3.13;1.10;;;22.10;1.00;;;;;;5033556;28;20172;-90
2023/07/12 00:06:16;;;;;;;4.33;1.17;;;21.70;1.00;;;;;;5035222;28;20172;-90
2023/07/12 00:08:41;;;;;;;2.50;1.00;;;21.70;1.00;;;;;;5033066;28;20622;-90
2023/07/12 00:11:17;;;;;;;1.43;0.90;;;21.60;1.00;;;;;;5033056;28;20220;-90
2023/07/12 00:13:43;;;;;;;2.20;1.13;;;21.50;1.00;;;;;;5039335;28;20251;-91
2023/07/12 00:16:22;;;;;;;2.27;1.10;;;21.50;1.00;;;;;;5055830;28;20171;-91
2023/07/12 00:18:48;;;;;;;3.80;1.30;;;21.50;1.00;;;;;;5053680;28;20179;-90
2023/07/12 00:21:22;;;;;;;2.90;1.07;;;21.50;1.00;;;;;;5039871;28;20184;-91
2023/07/12 00:23:52;;;;;;;1.37;1.10;;;21.50;1.00;;;;;;5037217;28;20278;-90
2023/07/12 00:26:22;;;;;;;3.93;1.23;;;21.40;1.00;;;;;;5035467;28;20208;-91
2023/07/12 00:28:48;;;;;;;4.23;1.27;;;21.40;1.00;;;;;;5034301;28;20265;-91
2023/07/12 00:31:13;;;;;;;1.93;1.00;;;21.50;1.00;;;;;;5034926;28;20180;-91
2023/07/12 00:33:39;;;;;;;1.40;1.00;;;21.40;1.00;;;;;;5035106;28;20665;-91
2023/07/12 00:36:10;;;;;;;2.07;1.00;;;21.30;1.00;;;;;;5033317;28;20601;-91
2023/07/12 00:38:36;;;;;;;1.90;1.17;;;21.10;1.00;;;;;;5033595;28;20241;-91
2023/07/12 00:41:07;;;;;;;2.80;1.17;;;21.00;1.00;;;;;;5033650;28;20204;-90
2023/07/12 00:43:43;;;;;;;1.47;0.90;;;21.00;1.00;;;;;;5033178;28;20800;-91
2023/07/12 00:46:25;;;;;;;2.40;1.10;;;21.00;1.00;;;;;;5038680;28;20645;-90
2023/07/12 00:48:51;;;;;;;3.43;1.10;;;20.90;1.00;;;;;;5034984;28;20188;-91
2023/07/12 00:51:30;;;;;;;1.40;1.00;;;20.90;1.00;;;;;;5033172;28;20176;-90
2023/07/12 00:53:56;;;;;;;2.57;1.03;;;20.90;1.00;;;;;;5034090;28;20255;-90
2023/07/12 00:56:22;;;;;;;1.10;1.00;;;20.90;1.00;;;;;;5033945;28;20550;-91
2023/07/12 00:59:03;;;;;;;1.97;1.17;;;20.80;1.00;;;;;;5033961;28;20534;-90
2023/07/12 01:01:29;;;;;;;1.50;0.90;;;20.80;1.00;;;;;;5034362;28;20172;-90
2023/07/12 01:03:55;;;;;;;3.57;1.00;;;20.90;1.00;;;;;;5033974;28;20188;-90
2023/07/12 01:06:22;;;;;;;3.27;1.30;;;21.10;1.00;;;;;;5033729;28;20271;-91
2023/07/12 01:08:48;;;;;;;1.67;1.30;;;20.80;1.00;;;;;;5034045;28;20208;-91
2023/07/12 01:11:16;;;;;;;3.97;1.30;;;20.80;1.00;;;;;;5033742;28;20657;-91
2023/07/12 01:13:44;;;;;;;2.67;1.07;;;20.80;1.00;;;;;;5034326;28;20179;-90
2023/07/12 01:16:17;;;;;;;1.67;1.13;;;20.90;9.40;;;;;;5033325;28;20634;-91
2023/07/12 01:18:42;;;;;;;2.00;1.20;;;21.00;98.60;;;;;;5034221;28;20291;-91
2023/07/12 01:21:14;;;;;;;2.83;1.10;;;20.80;92.40;;;;;;5033866;28;20200;-91
2023/07/12 01:23:41;;;;;;;3.00;1.23;;;20.70;99.90;;;;;;5035085;28;20194;-91
2023/07/12 01:26:25;;;;;;;2.80;1.40;;;20.70;99.90;;;;;;5033712;28;20704;-91
2023/07/12 01:28:58;;;;;;;2.90;1.20;;;20.60;99.90;;;;;;5033605;28;20642;-91
2023/07/12 01:31:25;;;;;;;4.97;1.60;;;20.70;99.90;;;;;;5033706;28;20165;-90
2023/07/12 01:33:52;;;;;;;3.17;2.07;;;20.60;99.90;;;;;;5033396;28;20226;-91
2023/07/12 01:36:19;;;;;;;5.00;1.50;;;20.60;99.90;;;;;;5033854;28;20231;-91
2023/07/12 01:38:45;;;;;;;5.13;1.80;;;20.50;99.90;;;;;;5033859;28;20270;-90
2023/07/12 01:41:11;;;;;;;2.83;1.50;;;20.70;68.10;;;;;;5035074;28;20306;-90
2023/07/12 01:43:37;;;;;;;1.70;1.47;;;20.30;24.60;;;;;;5033994;28;20180;-91
2023/07/12 01:46:03;;;;;;;2.00;1.30;;;20.50;1.00;;;;;;5033591;28;20180;-90
2023/07/12 01:48:28;;;;;;;2.30;1.40;;;20.10;23.70;;;;;;5033450;28;20223;-90
2023/07/12 01:50:54;;;;;;;3.87;1.30;;;20.30;76.50;;;;;;5032853;28;20295;-90
2023/07/12 01:53:20;;;;;;;2.73;1.20;;;20.40;89.70;;;;;;5036752;28;20182;-90
2023/07/12 01:55:45;;;;;;;1.93;1.40;;;20.20;99.90;;;;;;5037357;28;20226;-91
2023/07/12 01:58:11;;;;;;;1.90;1.30;;;20.30;80.70;;;;;;5038958;28;20180;-90
2023/07/12 02:00:38;;;;;;;3.30;1.30;;;20.10;25.60;;;;;;5037032;28;20204;-91
2023/07/12 02:03:04;;;;;;;2.30;1.67;;;20.10;37.20;;;;;;5036955;28;20204;-90
2023/07/12 02:05:29;;;;;;;2.20;1.40;;;20.20;59.60;;;;;;5039328;28;20184;-90
2023/07/12 02:07:56;;;;;;;2.07;1.40;;;20.30;69.50;;;;;;5036779;28;20310;-91
2023/07/12 02:10:25;;;;;;;1.93;1.40;;;20.20;1.00;;;;;;5038747;28;20180;-90
2023/07/12 02:12:51;;;;;;;2.47;1.40;;;20.10;22.60;;;;;;5036806;28;20176;-90
2023/07/12 02:15:18;;;;;;;2.20;1.10;;;20.40;36.50;;;;;;5036586;28;20179;-90
2023/07/12 02:17:43;;;;;;;2.10;1.30;;;20.20;69.30;;;;;;5035990;28;20306;-90
2023/07/12 02:20:10;;;;;;;3.17;1.60;;;20.20;99.90;;;;;;5036189;28;20212;-90
2023/07/12 02:22:38;;;;;;;2.43;1.50;;;20.30;99.90;;;;;;5036224;28;20176;-90
2023/07/12 02:25:04;;;;;;;7.43;1.40;;;20.90;99.90;;;;;;5035521;28;20180;-90
2023/07/12 02:27:30;;;;;;;1.60;1.27;;;20.30;99.90;;;;;;5035154;28;20250;-90
2023/07/12 02:29:56;;;;;;;2.53;1.70;;;20.20;99.90;;;;;;5045845;28;20196;-90
2023/07/12 02:32:22;;;;;;;2.53;1.60;;;20.00;99.90;;;;;;5057589;28;20176;-90
2023/07/12 02:34:48;;;;;;;5.20;2.40;;;20.10;99.90;;;;;;5048237;28;20177;-90
2023/07/12 02:37:14;;;;;;;2.80;1.77;;;19.90;99.90;;;;;;5038904;28;20563;-90
2023/07/12 02:39:40;;;;;;;8.03;2.20;;;19.80;99.90;;;;;;5037227;28;20291;-90
2023/07/12 02:42:06;;;;;;;6.37;2.20;;;20.10;99.90;;;;;;5035860;28;20230;-90
2023/07/12 02:44:32;;;;;;;6.20;2.67;;;19.70;99.90;;;;;;5034861;28;20249;-90
2023/07/12 02:46:57;;;;;;;4.60;1.90;;;19.70;99.90;;;;;;5034570;28;20183;-90
2023/07/12 02:49:23;;;;;;;3.60;1.93;;;19.40;99.90;;;;;;5035027;28;20670;-90
2023/07/12 02:51:48;;;;;;;6.57;3.10;;;19.30;99.90;;;;;;5034423;28;20224;-90
2023/07/12 02:54:14;;;;;;;5.37;3.10;;;19.20;99.90;;;;;;5034388;28;20183;-90
2023/07/12 02:56:40;;;;;;;5.73;3.40;;;19.00;99.90;;;;;;5033819;28;20642;-90
2023/07/12 02:59:05;;;;;;;11.00;3.87;;;19.20;99.90;;;;;;5033796;28;20363;-90
2023/07/12 03:01:31;;;;;;;9.50;3.60;;;18.90;99.90;;;;;;5033672;28;20179;-90
2023/07/12 03:03:56;;;;;;;6.43;3.40;;;20.00;99.90;;;;;;5035685;28;20176;-91
2023/07/12 03:06:22;;;;;;;7.57;3.97;;;19.00;99.90;;;;;;5033653;28;20533;-91
2023/07/12 03:08:48;;;;;;;4.40;2.87;;;18.70;99.90;;;;;;5033697;28;20728;-91
2023/07/12 03:11:14;;;;;;;9.57;3.30;;;19.80;99.90;;;;;;5033434;28;20172;-91
2023/07/12 03:13:40;;;;;;;8.37;4.00;;;18.70;99.90;;;;;;5034308;28;20181;-91
2023/07/12 03:16:07;;;;;;;7.57;4.10;;;18.60;99.90;;;;;;5034602;28;20238;-91
2023/07/12 03:18:33;;;;;;;8.60;4.13;;;18.50;99.90;;;;;;5034347;28;20184;-90
2023/07/12 03:21:00;;;;;;;7.90;3.30;;;18.50;99.90;;;;;;5033080;28;20262;-91
2023/07/12 03:23:26;;;;;;;4.87;2.80;;;18.50;99.90;;;;;;5034027;28;20638;-91
2023/07/12 03:25:52;;;;;;;6.77;2.40;;;18.50;99.90;;;;;;5033796;28;20200;-91
2023/07/12 03:28:17;;;;;;;4.10;2.00;;;18.60;99.90;;;;;;5032994;28;20219;-91
2023/07/12 03:30:43;;;;;;;4.93;2.03;;;18.60;99.90;;;;;;5033222;28;20208;-91
2023/07/12 03:33:08;;;;;;;5.90;2.23;;;18.50;99.90;;;;;;5034251;28;20203;-91
2023/07/12 03:35:34;;;;;;;6.20;2.00;;;18.50;99.90;;;;;;5034496;28;20198;-91
2023/07/12 03:37:59;;;;;;;5.60;1.70;;;18.40;99.90;;;;;;5034162;28;20187;-91
2023/07/12 03:40:25;;;;;;;4.57;1.83;;;18.50;99.90;;;;;;5033543;28;20732;-91
2023/07/12 03:42:50;;;;;;;9.20;2.63;;;18.50;99.90;;;;;;5033702;28;20181;-91
2023/07/12 03:45:16;;;;;;;8.20;2.10;;;18.50;99.90;;;;;;5033391;28;20630;-91
2023/07/12 03:47:42;;;;;;;7.10;2.50;;;18.30;99.90;;;;;;5033993;28;20208;-91
2023/07/12 03:50:07;;;;;;;6.60;2.37;;;18.40;99.90;;;;;;5034745;28;20255;-91
2023/07/12 03:52:33;;;;;;;6.50;2.53;;;18.40;99.90;;;;;;5034374;28;20587;-91
2023/07/12 03:54:59;;;;;;;8.70;2.20;;;18.30;99.90;;;;;;5034060;28;20172;-91
2023/07/12 03:57:25;;;;;;;4.70;2.37;;;18.30;99.90;;;;;;5035102;28;20219;-91
2023/07/12 03:59:51;;;;;;;10.00;2.10;;;18.30;99.90;;;;;;5033731;28;20204;-91
2023/07/12 04:02:16;;;;;;;9.53;2.00;;;18.20;99.90;;;;;;5034040;28;20203;-91
2023/07/12 04:04:42;;;;;;;5.33;1.97;;;18.40;99.90;;;;;;5034934;28;20190;-91
2023/07/12 04:07:08;;;;;;;3.57;1.80;;;18.20;99.90;;;;;;5036006;28;20179;-91
2023/07/12 04:09:33;;;;;;;10.53;2.10;;;18.10;99.90;;;;;;5034684;28;20282;-91
2023/07/12 04:11:59;;;;;;;3.63;1.83;;;18.20;99.90;;;;;;5034499;28;20204;-91
2023/07/12 04:14:24;;;;;;;4.20;2.10;;;18.20;99.90;;;;;;5033592;28;20172;-91
2023/07/12 04:16:50;;;;;;;8.10;2.23;;;18.20;99.90;;;;;;5033062;28;20175;-91
2023/07/12 04:19:15;;;;;;;3.63;1.70;;;18.20;99.90;;;;;;5034177;28;20200;-91
2023/07/12 04:21:41;;;;;;;6.00;1.87;;;18.20;99.90;;;;;;5033704;28;20184;-91
2023/07/12 04:24:07;;;;;;;4.47;1.87;;;18.10;99.90;;;;;;5033701;28;20267;-91
2023/07/12 04:26:32;;;;;;;4.67;1.90;;;18.20;99.90;;;;;;5034912;28;20179;-91
2023/07/12 04:28:58;;;;;;;5.80;2.07;;;18.10;99.90;;;;;;5033017;28;20207;-91
2023/07/12 04:31:23;;;;;;;4.17;2.00;;;18.20;99.90;;;;;;5033924;28;20218;-91
2023/07/12 04:33:50;;;;;;;9.83;1.77;;;18.10;99.90;;;;;;5033574;28;20587;-91
2023/07/12 04:36:17;;;;;;;6.10;1.70;;;18.30;99.90;;;;;;5035962;28;20184;-91
2023/07/12 04:38:43;;;;;;;7.27;2.13;;;18.10;99.90;;;;;;5033871;28;20182;-91
2023/07/12 04:41:09;;;;;;;4.10;2.37;;;18.90;99.90;;;;;;5034193;28;20200;-92
2023/07/12 04:43:35;;;;;;;4.50;1.60;;;18.10;99.90;;;;;;5034638;28;20180;-91
2023/07/12 04:46:00;;;;;;;2.53;1.50;;;18.40;99.90;;;;;;5052712;28;20180;-91
2023/07/12 04:48:26;;;;;;;3.03;1.57;;;18.10;99.90;;;;;;5056269;28;20235;-91
2023/07/12 04:50:54;;;;;;;5.33;1.77;;;18.10;99.90;;;;;;5042575;28;20279;-91
2023/07/12 04:53:21;;;;;;;5.53;2.07;;;18.00;99.90;;;;;;5038289;28;20211;-91
2023/07/12 04:55:47;;;;;;;3.17;1.50;;;18.00;99.90;;;;;;5036262;28;20242;-91
2023/07/12 04:58:13;;;;;;;2.60;1.70;;;18.00;99.90;;;;;;5034937;28;20275;-91
2023/07/12 05:00:39;;;;;;;4.97;1.87;;;18.00;99.90;;;;;;5035102;28;20227;-91
2023/07/12 05:03:05;;;;;;;5.40;1.80;;;18.10;99.90;;;;;;5034746;28;20177;-91
2023/07/12 05:05:30;;;;;;;4.40;1.93;;;18.00;99.90;;;;;;5033939;28;20247;-91
2023/07/12 05:07:56;;;;;;;3.30;1.37;;;18.00;99.90;;;;;;5034204;28;20212;-91
2023/07/12 05:10:22;;;;;;;4.37;1.70;;;18.00;99.90;;;;;;5033920;28;20199;-91
2023/07/12 05:12:47;;;;;;;5.27;1.40;;;17.90;99.90;;;;;;5034519;28;20242;-91
2023/07/12 05:15:13;;;;;;;5.67;1.33;;;18.10;99.90;;;;;;5033672;28;20177;-91
2023/07/12 05:17:39;;;;;;;4.47;1.50;;;18.00;99.90;;;;;;5033823;28;20172;-91
2023/07/12 05:20:07;;;;;;;4.90;1.60;;;18.00;99.90;;;;;;5033564;28;20197;-91
2023/07/12 05:22:33;;;;;;;4.40;1.27;;;18.00;99.90;;;;;;5034757;28;20184;-91
2023/07/12 05:24:59;;;;;;;5.17;1.40;;;17.80;99.90;;;;;;5033273;28;20176;-91
2023/07/12 05:27:25;;;;;;;2.87;1.50;;;18.00;99.90;;;;;;5037146;28;20210;-91
2023/07/12 05:29:50;;;;;;;3.10;1.67;;;19.30;99.90;;;;;;5037009;28;20228;-91
2023/07/12 05:32:16;;;;;;;3.63;1.53;;;17.90;99.90;;;;;;5038426;28;20168;-91
2023/07/12 05:34:41;;;;;;;4.40;1.47;;;17.90;99.90;;;;;;5037220;28;20699;-91
2023/07/12 05:37:12;;;;;;;2.83;1.50;;;18.00;99.90;;;;;;5048416;28;20227;-91
2023/07/12 05:39:38;;;;;;;2.40;1.30;;;17.90;99.90;;;;;;5036753;28;20196;-91
2023/07/12 05:42:04;;;;;;;3.00;1.73;;;17.90;99.90;;;;;;5037311;28;20255;-90
2023/07/12 05:44:29;;;;;;;2.10;1.43;;;17.90;99.90;;;;;;5037855;28;20172;-91
2023/07/12 05:46:55;;;;;;;2.83;1.20;;;17.90;99.90;;;;;;5036321;28;20181;-90
2023/07/12 05:49:21;;;;;;;2.47;1.40;;;17.90;99.90;;;;;;5036586;28;20219;-92
2023/07/12 05:51:46;;;;;;;2.27;1.40;;;18.00;99.90;;;;;;5036552;28;20640;-91
2023/07/12 05:54:12;;;;;;;3.63;1.53;;;17.90;99.90;;;;;;5036767;28;20256;-91
2023/07/12 05:56:38;;;;;;;4.30;1.53;;;17.90;99.90;;;;;;5036567;28;20176;-91
2023/07/12 05:59:04;;;;;;;2.83;1.20;;;17.90;99.90;;;;;;5036903;28;20176;-91
2023/07/12 06:01:30;;;;;;;3.00;1.50;;;17.90;99.90;;;;;;5037128;28;20180;-91
2023/07/12 06:03:55;;;;;;;2.17;1.50;;;17.80;99.90;;;;;;5037290;28;20554;-91
2023/07/12 06:06:21;;;;;;;2.30;1.50;;;18.30;99.90;;;;;;5037596;28;20184;-91
2023/07/12 06:08:47;;;;;;;5.20;1.60;;;17.80;99.90;;;;;;5036288;28;20235;-91
2023/07/12 06:11:12;;;;;;;5.17;1.90;;;17.50;99.90;;;;;;5037154;28;20654;-92
2023/07/12 06:13:38;;;;;;;7.93;2.53;;;17.70;99.90;;;;;;5035690;28;20180;-92
2023/07/12 06:16:04;;;;;;;6.23;1.83;;;18.10;99.90;;;;;;5036418;28;20275;-91
2023/07/12 06:18:30;;;;;;;8.53;2.17;;;17.80;99.90;;;;;;5035256;28;20183;-91
2023/07/12 06:20:58;;;;;;;5.40;1.80;;;17.80;99.90;;;;;;5034565;28;20196;-90
2023/07/12 06:23:24;;;;;;;3.50;1.77;;;17.70;99.90;;;;;;5033868;28;20680;-91
2023/07/12 06:25:50;;;;;;;4.57;1.90;;;17.60;99.90;;;;;;5033851;28;20297;-91
2023/07/12 06:28:15;;;;;;;5.90;2.20;;;17.80;99.90;;;;;;5035660;28;20196;-91
2023/07/12 06:30:41;;;;;;;7.63;1.67;;;19.10;99.90;;;;;;5035015;28;20199;-91
2023/07/12 06:33:06;;;;;;;5.70;1.93;;;17.60;99.90;;;;;;5034554;28;20169;-91
2023/07/12 06:35:32;;;;;;;4.50;1.80;;;18.00;99.90;;;;;;5034395;28;20191;-91
2023/07/12 06:37:57;;;;;;;4.83;1.80;;;17.60;99.90;;;;;;5033373;28;20271;-91
2023/07/12 06:40:23;;;;;;;5.17;1.77;;;17.60;99.90;;;;;;5033641;28;20204;-91
2023/07/12 06:42:49;;;;;;;5.73;1.77;;;17.80;99.90;;;;;;5034737;28;20172;-91
2023/07/12 06:45:14;;;;;;;3.70;2.10;;;18.00;99.90;;;;;;5034151;28;20613;-91
2023/07/12 06:47:40;;;;;;;3.67;1.80;;;17.70;99.90;;;;;;5034524;28;20282;-91
2023/07/12 06:50:06;;;;;;;3.57;1.60;;;17.80;99.90;;;;;;5035750;28;20650;-91
2023/07/12 06:52:32;;;;;;;3.93;1.80;;;17.80;99.90;;;;;;5035021;28;20211;-91
2023/07/12 06:54:57;;;;;;;5.33;2.20;;;17.90;99.90;;;;;;5035438;28;20255;-91
2023/07/12 06:57:23;;;;;;;8.73;2.67;;;17.90;99.90;;;;;;5035281;28;20176;-92
2023/07/12 06:59:48;;;;;;;6.97;2.30;;;17.90;99.90;;;;;;5036391;28;20234;-91
2023/07/12 07:02:15;;;;;;;6.77;2.40;;;18.10;99.90;;;;;;5057810;28;20172;-91
2023/07/12 07:04:40;;;;;;;6.93;2.27;;;18.00;99.90;;;;;;5054551;28;20169;-92
2023/07/12 07:07:06;;;;;;;4.67;2.10;;;18.10;99.90;;;;;;5039980;28;20211;-92
2023/07/12 07:09:38;;;;;;;5.90;2.00;;;18.20;99.90;;;;;;5037681;28;20266;-92
2023/07/12 07:12:07;;;;;;;5.70;2.00;;;18.50;99.90;;;;;;5035052;28;20191;-92
2023/07/12 07:14:33;;;;;;;5.13;2.20;;;18.40;99.90;;;;;;5035899;28;20720;-89
2023/07/12 07:16:58;;;;;;;4.27;2.07;;;18.60;99.90;;;;;;5035465;28;20172;-89
2023/07/12 07:19:24;;;;;;;3.93;1.50;;;19.50;99.90;;;;;;5033844;28;20235;-89
2023/07/12 07:21:50;;;;;;;3.53;1.47;;;18.40;56.10;;;;;;5034876;28;20187;-90
2023/07/12 07:24:17;;;;;;;3.83;1.70;;;19.10;1.00;;;;;;5033591;28;20183;-90
2023/07/12 07:26:43;;;;;;;5.77;2.10;;;18.60;1.00;;;;;;5034726;28;20180;-90
2023/07/12 07:29:08;;;;;;;9.17;1.80;;;18.70;1.00;;;;;;5036327;28;20227;-90
2023/07/12 07:31:34;;;;;;;4.40;1.80;;;18.70;1.00;;;;;;5042763;28;20180;-90
2023/07/12 07:33:59;;;;;;;6.60;2.00;;;18.70;1.00;;;;;;5035112;28;20267;-90
2023/07/12 07:36:25;;;;;;;4.47;1.47;;;19.40;1.00;;;;;;5035952;28;20290;-90
2023/07/12 07:38:51;;;;;;;4.00;1.80;;;18.80;1.00;;;;;;5034402;28;20184;-90
2023/07/12 07:41:16;;;;;;;5.33;1.70;;;18.80;1.00;;;;;;5036281;28;20191;-91
2023/07/12 07:43:44;;;;;;;6.23;1.73;;;18.80;1.00;;;;;;5034967;28;20173;-91
2023/07/12 07:46:11;;;;;;;6.30;1.67;;;18.80;1.00;;;;;;5034095;28;20230;-91
2023/07/12 07:48:37;;;;;;;7.03;1.60;;;18.80;1.00;;;;;;5033254;28;20212;-91
2023/07/12 07:51:03;;;;;;;5.37;1.70;;;18.80;1.00;;;;;;5035557;28;20199;-91
2023/07/12 07:53:29;;;;;;;9.00;1.73;;;18.80;1.00;;;;;;5034473;28;20614;-91
2023/07/12 07:55:54;;;;;;;4.03;1.47;;;19.00;1.00;;;;;;5033925;28;20176;-91
2023/07/12 07:58:21;;;;;;;4.67;1.40;;;18.90;1.00;;;;;;5032497;28;20230;-91
2023/07/12 08:00:47;;;;;;;4.27;1.40;;;18.90;1.00;;;;;;5032862;28;20208;-91
2023/07/12 08:03:13;;;;;;;3.03;1.50;;;19.00;1.00;;;;;;5034433;28;20590;-91
2023/07/12 08:05:38;;;;;;;5.90;1.90;;;18.90;1.00;;;;;;5032908;28;20211;-91
2023/07/12 08:08:05;;;;;;;5.87;1.43;;;20.40;1.00;;;;;;5032158;28;20191;-91
2023/07/12 08:10:32;;;;;;;5.17;1.60;;;19.10;1.00;;;;;;5032596;28;20237;-91
2023/07/12 08:12:58;;;;;;;3.50;1.50;;;19.80;1.00;;;;;;5032860;28;20172;-91
2023/07/12 08:15:25;;;;;;;5.03;1.40;;;19.60;1.00;;;;;;5032411;28;20172;-91
2023/07/12 08:17:51;;;;;;;1.70;1.30;;;19.70;1.00;;;;;;5033067;28;20552;-91
2023/07/12 08:20:16;;;;;;;3.30;1.57;;;20.30;1.00;;;;;;5032121;28;20290;-91
2023/07/12 08:22:42;;;;;;;3.63;1.30;;;19.40;1.00;;;;;;5031789;28;20199;-91
2023/07/12 08:25:08;;;;;;;4.13;1.57;;;19.40;1.00;;;;;;5032273;28;20226;-90
2023/07/12 08:27:34;;;;;;;5.53;1.50;;;19.50;1.00;;;;;;5031562;28;20200;-90
2023/07/12 08:30:00;;;;;;;2.70;1.10;;;19.60;1.00;;;;;;5032364;28;20198;-91
2023/07/12 08:32:29;;;;;;;4.53;1.47;;;19.70;1.00;;;;;;5032776;28;20267;-91
2023/07/12 08:34:56;;;;;;;5.30;1.33;;;19.80;99.90;;;;;;5033020;28;20207;-91
2023/07/12 08:37:23;;;;;;;4.80;1.40;;;19.90;99.90;;;;;;5032193;28;20176;-91
2023/07/12 08:39:48;;;;;;;3.07;1.37;;;19.80;99.90;;;;;;5032064;28;20188;-91
2023/07/12 08:42:27;;;;;;;5.90;1.43;;;19.90;99.90;;;;;;5031834;28;20539;-91
2023/07/12 08:44:56;;;;;;;3.00;1.33;;;19.90;99.90;;;;;;5031864;28;20175;-91
2023/07/12 08:47:35;;;;;;;11.20;1.60;;;20.00;99.90;;;;;;5033732;28;20184;-91
2023/07/12 08:50:00;;;;;;;4.40;1.63;;;20.10;99.90;;;;;;5035950;28;20296;-91
2023/07/12 08:52:32;;;;;;;5.57;1.20;;;20.10;99.90;;;;;;5032266;28;20195;-91
2023/07/12 08:55:01;;;;;;;4.23;1.63;;;20.30;99.90;;;;;;5033271;28;20157;-91
2023/07/12 08:57:28;;;;;;;6.93;1.53;;;20.20;99.90;;;;;;5031708;28;20172;-90
2023/07/12 09:00:08;;;;;;;3.47;1.23;;;20.10;99.90;;;;;;5031936;28;20662;-91
2023/07/12 09:02:34;;;;;;;5.83;1.50;;;20.20;99.90;;;;;;5035873;28;20595;-90
2023/07/12 09:05:13;;;;;;;7.00;1.40;;;20.40;99.90;;;;;;5035841;28;20172;-91
2023/07/12 09:07:47;;;;;;;4.53;1.40;;;20.10;99.90;;;;;;5035617;28;20187;-90
2023/07/12 09:10:29;;;;;;;4.07;1.30;;;20.10;99.90;;;;;;5035616;28;20199;-91
2023/07/12 09:12:57;;;;;;;6.93;1.87;;;20.30;99.90;;;;;;5038533;28;20168;-91
2023/07/12 09:15:34;;;;;;;5.90;1.60;;;20.20;99.90;;;;;;5037783;28;20519;-91
2023/07/12 09:18:00;;;;;;;6.67;1.50;;;20.40;99.90;;;;;;5049835;28;20179;-91
2023/07/12 09:20:27;;;;;;;4.63;1.63;;;20.90;99.90;;;;;;5036121;28;20697;-91
2023/07/12 09:22:54;;;;;;;3.73;1.43;;;20.40;99.90;;;;;;5037336;28;20218;-91
2023/07/12 09:25:33;;;;;;;2.70;1.10;;;20.60;99.90;;;;;;5038783;28;20226;-90
2023/07/12 09:27:58;;;;;;;5.43;1.30;;;21.30;99.90;;;;;;5037354;28;20223;-91
2023/07/12 09:30:27;;;;;;;5.90;1.40;;;20.90;99.90;;;;;;5035478;28;20262;-91
2023/07/12 09:32:54;;;;;;;5.43;1.53;;;21.00;99.90;;;;;;5035663;28;20488;-91
2023/07/12 09:35:47;;;;;;;6.80;1.97;;;21.40;99.90;;;;;;5035476;28;20207;-91
2023/07/12 09:38:24;;;;;;;3.57;1.40;;;21.00;99.90;;;;;;5035959;28;20600;-91
2023/07/12 09:40:51;;;;;;;7.17;1.40;;;21.20;99.90;;;;;;5034611;28;20584;-91
2023/07/12 09:43:26;;;;;;;6.27;1.60;;;21.30;99.90;;;;;;5034723;28;20208;-91
2023/07/12 09:46:03;;;;;;;5.90;1.40;;;21.20;99.90;;;;;;5036777;28;20164;-91
2023/07/12 09:48:34;;;;;;;4.87;1.70;;;21.20;99.90;;;;;;5035507;28;20215;-91
2023/07/12 09:51:35;;;;;;;6.23;1.70;;;21.30;99.90;;;;;;5035029;28;20625;-91
2023/07/12 09:54:01;;;;;;;4.37;1.43;;;21.40;99.90;;;;;;5035484;28;20576;-91
2023/07/12 09:56:40;;;;;;;4.53;1.70;;;21.50;99.90;;;;;;5035847;28;20176;-91
2023/07/12 09:59:30;;;;;;;4.93;1.20;;;21.30;99.90;;;;;;5036653;28;20242;-92
2023/07/12 10:02:38;;;;;;;5.60;1.77;;;21.20;99.90;;;;;;5035660;28;20172;-91
2023/07/12 10:05:12;;;;;;;4.37;1.50;;;21.30;99.90;;;;;;5035454;28;20196;-91
2023/07/12 10:07:48;;;;;;;4.10;1.60;;;21.10;99.90;;;;;;5035728;28;20191;-90
2023/07/12 10:10:33;;;;;;;3.90;1.20;;;21.10;99.90;;;;;;5036064;28;20243;-91
2023/07/12 10:13:40;;;;;;;4.40;1.30;;;21.00;99.90;;;;;;5034597;28;20164;-90
2023/07/12 10:16:18;;;;;;;5.07;1.50;;;20.90;99.90;;;;;;5036627;28;20152;-91
2023/07/12 10:18:44;;;;;;;3.17;1.40;;;20.70;99.90;;;;;;5035467;28;20168;-91
2023/07/12 10:21:17;;;;;;;5.47;1.30;;;20.60;99.90;;;;;;5035054;28;20204;-91
2023/07/12 10:23:49;;;;;;;7.23;1.43;;;20.60;99.90;;;;;;5035253;28;20199;-91
2023/07/12 10:26:16;;;;;;;4.80;1.50;;;20.80;99.90;;;;;;5035154;28;20252;-91
2023/07/12 10:29:05;;;;;;;4.10;1.33;;;20.70;99.90;;;;;;5036400;28;20696;-90
2023/07/12 10:31:37;;;;;;;5.93;1.63;;;20.90;99.90;;;;;;5034989;28;20177;-91
2023/07/12 10:34:24;;;;;;;5.90;1.47;;;21.00;99.90;;;;;;5035628;28;20223;-91
2023/07/12 10:36:55;;;;;;;3.70;1.40;;;21.20;99.90;;;;;;5036168;28;20662;-92
2023/07/12 10:39:26;;;;;;;4.50;1.80;;;21.30;99.90;;;;;;5034742;28;20218;-91
2023/07/12 10:42:17;;;;;;;4.27;1.30;;;21.40;99.90;;;;;;5034369;28;20176;-91
2023/07/12 10:44:49;;;;;;;2.17;1.03;;;21.60;99.90;;;;;;5034921;28;20203;-91
2023/07/12 10:47:19;;;;;;;3.77;1.80;;;21.90;53.50;;;;;;5035170;28;20290;-91
2023/07/12 10:49:58;;;;;;;3.07;1.40;;;21.80;22.90;;;;;;5034321;28;20196;-92
2023/07/12 10:52:32;;;;;;;2.87;1.27;;;21.90;18.30;;;;;;5034472;28;20168;-91
2023/07/12 10:55:15;;;;;;;3.27;1.33;;;21.80;1.00;;;;;;5034351;28;20176;-91
2023/07/12 10:57:46;;;;;;;2.37;1.00;;;21.70;1.00;;;;;;5035166;28;20182;-91
2023/07/12 11:00:18;;;;;;;3.03;1.00;;;21.60;1.00;;;;;;5034372;28;20197;-92
2023/07/12 11:02:47;;;;;;;4.70;1.17;;;21.30;1.00;;;;;;5045123;28;20211;-91
2023/07/12 11:05:58;;;;;;;4.30;1.20;;;21.30;1.00;;;;;;5039140;28;20203;-91
2023/07/12 11:08:32;;;;;;;4.97;1.30;;;21.40;1.00;;;;;;5035234;28;20200;-91
2023/07/12 11:11:08;;;;;;;6.70;1.17;;;21.50;31.70;;;;;;5033921;28;20195;-91
2023/07/12 11:13:41;;;;;;;5.77;1.30;;;21.50;1.00;;;;;;5035531;28;20470;-92
2023/07/12 11:16:14;;;;;;;6.57;1.33;;;21.60;29.80;;;;;;5034509;28;20179;-91
2023/07/12 11:18:54;;;;;;;4.73;1.57;;;21.50;4.40;;;;;;5034481;28;20259;-92
2023/07/12 11:21:50;;;;;;;4.97;1.10;;;21.50;39.30;;;;;;5035955;28;20153;-91
2023/07/12 11:24:25;;;;;;;3.13;1.13;;;21.60;69.20;;;;;;5035712;28;20179;-91
2023/07/12 11:26:54;;;;;;;6.53;1.27;;;21.60;92.70;;;;;;5035868;28;20263;-91
2023/07/12 11:29:32;;;;;;;3.57;1.30;;;21.60;9.20;;;;;;5047486;28;20231;-91
2023/07/12 11:32:03;;;;;;;1.83;1.30;;;21.50;1.00;;;;;;5055599;28;20195;-91
2023/07/12 11:34:31;;;;;;;4.30;1.20;;;21.60;54.80;;;;;;5057264;28;20171;-92
2023/07/12 11:37:00;;;;;;;4.97;1.67;;;21.70;49.80;;;;;;5047859;28;20203;-92
2023/07/12 11:39:29;;;;;;;2.03;0.80;;;21.80;99.90;;;;;;5039743;28;20712;-91
2023/07/12 11:41:59;;;;;;;4.07;1.30;;;21.90;1.00;;;;;;5037932;28;20259;-91
2023/07/12 11:44:27;;;;;;;4.47;1.20;;;21.90;1.00;;;;;;5036096;28;20646;-91
2023/07/12 11:46:54;;;;;;;3.10;1.13;;;22.10;1.00;;;;;;5035587;28;20192;-92
2023/07/12 11:49:21;;;;;;;3.33;1.03;;;22.60;1.00;;;;;;5037155;28;20216;-91
2023/07/12 11:51:54;;;;;;;3.63;1.30;;;22.40;1.00;;;;;;5044424;28;20176;-91
2023/07/12 11:54:37;;;;;;;7.17;1.40;;;22.60;1.00;;;;;;5048867;28;20188;-90
2023/07/12 11:57:05;;;;;;;4.60;1.33;;;22.80;1.00;;;;;;5052152;28;20161;-91
2023/07/12 11:59:36;;;;;;;3.47;1.33;;;22.70;1.00;;;;;;5047110;28;20213;-91
2023/07/12 12:02:05;;;;;;;2.57;1.00;;;22.60;1.00;;;;;;5034583;28;20631;-91
2023/07/12 12:04:31;;;;;;;5.30;1.30;;;22.40;1.00;;;;;;5033490;28;20262;-92
2023/07/12 12:07:06;;;;;;;3.93;1.03;;;22.60;1.00;;;;;;5034446;28;20180;-91
2023/07/12 12:09:35;;;;;;;4.37;1.13;;;22.50;1.00;;;;;;5032924;28;20253;-91
2023/07/12 12:12:06;;;;;;;3.27;1.10;;;22.60;1.00;;;;;;5032754;28;20172;-91
2023/07/12 12:14:38;;;;;;;3.87;1.20;;;22.70;1.00;;;;;;5034988;28;20179;-90
2023/07/12 12:17:06;;;;;;;5.40;0.93;;;22.80;1.00;;;;;;5033373;28;20172;-90
2023/07/12 12:19:32;;;;;;;7.30;1.10;;;22.80;1.00;;;;;;5081447;22;20253;-79
2023/07/12 12:22:04;;;;;;;3.60;1.23;;;22.90;1.00;;;;;;5024381;28;20532;-76
2023/07/12 12:24:43;;;;;;;5.40;1.37;;;22.80;1.00;;;;;;5023384;28;20681;-78
2023/07/12 12:27:21;;;;;;;5.10;1.50;;;22.80;1.00;;;;;;5023868;28;20207;-79
2023/07/12 12:29:49;;;;;;;3.53;1.10;;;22.70;1.00;;;;;;5023291;28;20185;-79
2023/07/12 12:32:16;;;;;;;3.40;0.90;;;22.80;1.00;;;;;;5023260;28;20184;-79
2023/07/12 12:34:50;;;;;;;5.47;1.00;;;22.80;1.00;;;;;;5021568;28;20200;-79
2023/07/12 12:37:23;;;;;;;5.07;1.30;;;22.90;1.00;;;;;;5024172;28;20248;-78
2023/07/12 12:40:01;;;;;;;3.20;1.10;;;23.10;99.90;;;;;;5023187;28;20263;-78
2023/07/12 12:42:29;;;;;;;5.10;1.70;;;23.20;99.90;;;;;;5022937;28;20157;-79
2023/07/12 12:44:55;;;;;;;3.13;0.97;;;23.40;99.90;;;;;;5023639;28;20179;-79
2023/07/12 12:47:23;;;;;;;3.87;1.20;;;23.50;99.90;;;;;;5025651;28;20283;-78
2023/07/12 12:49:49;;;;;;;2.30;0.97;;;23.40;99.90;;;;;;5023822;28;20177;-78
2023/07/12 12:52:27;;;;;;;3.40;1.00;;;23.60;99.90;;;;;;5023594;28;20200;-79
2023/07/12 12:54:55;;;;;;;3.23;1.37;;;23.40;99.90;;;;;;5022353;28;20180;-78
2023/07/12 12:57:20;;;;;;;3.67;0.90;;;23.30;99.90;;;;;;5024252;28;20200;-79
2023/07/12 12:59:46;;;;;;;3.80;0.93;;;23.20;99.90;;;;;;5023996;28;20177;-78